createdAt,value
2023-04-12T00:00:48.459Z,4.7923
2023-04-12T00:01:50.183Z,4.9538
2023-04-12T00:02:51.785Z,5.1154
2023-04-12T00:03:53.528Z,4.3385
2023-04-12T00:04:55.051Z,3.5154
2023-04-12T00:05:56.666Z,4.7077
2023-04-12T00:06:58.399Z,4.4154
2023-04-12T00:07:59.976Z,4.4077
2023-04-12T00:09:01.621Z,5.6769
2023-04-12T00:10:03.290Z,4.8538
2023-04-12T00:11:05.000Z,5.1308
2023-04-12T00:12:06.571Z,4.7385
2023-04-12T00:13:08.217Z,4.2692
2023-04-12T00:14:09.831Z,7.0769
2023-04-12T00:15:11.487Z,5.2923
2023-04-12T00:16:13.134Z,5.7538
2023-04-12T00:17:14.834Z,4.9154
2023-04-12T00:18:16.424Z,5.1077
2023-04-12T00:19:18.199Z,4.0308
2023-04-12T00:20:19.627Z,4.3462
2023-04-12T00:21:21.309Z,6.3692
2023-04-12T00:22:22.985Z,5.3308
2023-04-12T00:23:24.611Z,4.1923
2023-04-12T00:24:26.203Z,4.9154
2023-04-12T00:25:27.847Z,5.5154
2023-04-12T00:26:29.482Z,4.8846
2023-04-12T00:27:31.141Z,5.2308
2023-04-12T00:28:32.762Z,4.5000
2023-04-12T00:29:34.417Z,3.6692
2023-04-12T00:30:36.063Z,4.2231
2023-04-12T00:31:37.800Z,4.8000
2023-04-12T00:32:39.448Z,5.6308
2023-04-12T00:33:40.967Z,4.9923
2023-04-12T00:34:42.605Z,5.3462
2023-04-12T00:35:44.292Z,4.3231
2023-04-12T00:36:45.901Z,5.8000
2023-04-12T00:37:47.571Z,4.7385
2023-04-12T00:38:49.174Z,4.5000
2023-04-12T00:39:50.960Z,4.5615
2023-04-12T00:40:52.453Z,4.2538
2023-04-12T00:41:54.131Z,4.6308
2023-04-12T00:42:55.900Z,5.7000
2023-04-12T00:43:57.467Z,5.5692
2023-04-12T00:44:59.007Z,6.7000
2023-04-12T00:46:00.636Z,5.0462
2023-04-12T00:47:02.486Z,4.7692
2023-04-12T00:48:03.971Z,4.7615
2023-04-12T00:49:05.576Z,5.1615
2023-04-12T00:50:07.216Z,5.7231
2023-04-12T00:51:08.860Z,4.3000
2023-04-12T00:52:10.498Z,5.2154
2023-04-12T00:53:12.201Z,4.5308
2023-04-12T00:54:13.784Z,3.8308
2023-04-12T00:55:15.441Z,4.1077
2023-04-12T00:56:17.100Z,3.1231
2023-04-12T00:57:19.063Z,3.9154
2023-04-12T00:58:20.665Z,3.7692
2023-04-12T00:59:22.026Z,4.7308
2023-04-12T01:00:23.652Z,3.9385
2023-04-12T01:01:25.286Z,5.2538
2023-04-12T01:02:27.122Z,3.9692
2023-04-12T01:03:28.789Z,3.8462
2023-04-12T01:04:30.218Z,3.8231
2023-04-12T01:05:31.848Z,5.1462
2023-04-12T01:06:33.525Z,4.1154
2023-04-12T01:07:35.125Z,4.9615
2023-04-12T01:08:36.846Z,3.6308
2023-04-12T01:09:38.431Z,4.1308
2023-04-12T01:10:40.085Z,3.8308
2023-04-12T01:11:41.705Z,3.1385
2023-04-12T01:12:43.369Z,3.3846
2023-04-12T01:13:45.026Z,3.8615
2023-04-12T01:14:46.686Z,3.6923
2023-04-12T01:15:48.284Z,2.9077
2023-04-12T01:16:49.917Z,3.9385
2023-04-12T01:17:51.621Z,4.3769
2023-04-12T01:18:53.196Z,4.2231
2023-04-12T01:19:54.916Z,3.4692
2023-04-12T01:20:56.506Z,4.1308
2023-04-12T01:21:58.184Z,5.0615
2023-04-12T01:22:59.824Z,4.2308
2023-04-12T01:24:01.473Z,3.7538
2023-04-12T01:25:03.119Z,4.6000
2023-04-12T01:26:04.758Z,3.7692
2023-04-12T01:27:06.396Z,4.0385
2023-04-12T01:28:08.017Z,4.7308
2023-04-12T01:29:09.653Z,3.7308
2023-04-12T01:30:11.338Z,4.4923
2023-04-12T01:31:13.038Z,3.9769
2023-04-12T01:32:14.589Z,4.2769
2023-04-12T01:33:16.319Z,4.2462
2023-04-12T01:34:17.974Z,4.8154
2023-04-12T01:35:19.700Z,4.3231
2023-04-12T01:36:21.268Z,5.3462
2023-04-12T01:37:22.885Z,5.7385
2023-04-12T01:38:24.527Z,4.3538
2023-04-12T01:39:26.145Z,4.4615
2023-04-12T01:40:27.883Z,4.6769
2023-04-12T01:41:29.445Z,4.1769
2023-04-12T01:42:31.063Z,5.8231
2023-04-12T01:43:32.706Z,4.6462
2023-04-12T01:44:34.345Z,4.4000
2023-04-12T01:45:36.059Z,6.2538
2023-04-12T01:46:37.648Z,5.4615
2023-04-12T01:47:39.274Z,5.0308
2023-04-12T01:48:40.997Z,4.1308
2023-04-12T01:49:42.552Z,4.5077
2023-04-12T01:50:44.222Z,4.3462
2023-04-12T01:51:45.839Z,5.4923
2023-04-12T01:52:47.466Z,4.3769
2023-04-12T01:53:49.117Z,4.9308
2023-04-12T01:54:50.764Z,3.6077
2023-04-12T01:55:52.367Z,5.3308
2023-04-12T01:56:53.986Z,5.3154
2023-04-12T01:57:55.631Z,4.8154
2023-04-12T01:58:57.294Z,4.5000
2023-04-12T01:59:58.948Z,5.9462
2023-04-12T02:01:00.593Z,4.8923
2023-04-12T02:02:02.313Z,5.8385
2023-04-12T02:03:03.963Z,5.3615
2023-04-12T02:04:05.481Z,5.8000
2023-04-12T02:05:07.088Z,6.4462
2023-04-12T02:06:08.671Z,4.8615
2023-04-12T02:07:10.347Z,5.1769
2023-04-12T02:08:11.953Z,4.9923
2023-04-12T02:09:13.612Z,5.4231
2023-04-12T02:10:15.329Z,5.8308
2023-04-12T02:11:16.886Z,4.2846
2023-04-12T02:12:18.526Z,4.9538
2023-04-12T02:13:20.167Z,5.9000
2023-04-12T02:14:21.857Z,4.7077
2023-04-12T02:15:23.482Z,4.3769
2023-04-12T02:16:25.196Z,4.2923
2023-04-12T02:17:26.773Z,6.5615
2023-04-12T02:18:28.405Z,3.8231
2023-04-12T02:19:30.046Z,4.8615
2023-04-12T02:20:31.730Z,4.7385
2023-04-12T02:21:33.313Z,5.9154
2023-04-12T02:22:34.973Z,5.2538
2023-04-12T02:23:36.676Z,6.6923
2023-04-12T02:24:38.266Z,5.6000
2023-04-12T02:25:39.976Z,4.2538
2023-04-12T02:26:41.544Z,6.6462
2023-04-12T02:27:43.204Z,5.1615
2023-04-12T02:28:44.835Z,4.8538
2023-04-12T02:29:46.466Z,5.0077
2023-04-12T02:30:48.201Z,6.3308
2023-04-12T02:31:49.785Z,6.3538
2023-04-12T02:32:51.432Z,5.3077
2023-04-12T02:33:53.080Z,4.2308
2023-04-12T02:34:54.690Z,4.4154
2023-04-12T02:35:56.430Z,4.6923
2023-04-12T02:36:58.055Z,4.9385
2023-04-12T02:37:59.695Z,4.5769
2023-04-12T02:39:01.339Z,4.6462
2023-04-12T02:40:02.976Z,5.8000
2023-04-12T02:41:04.657Z,3.9231
2023-04-12T02:42:06.356Z,4.1231
2023-04-12T02:43:07.845Z,4.8385
2023-04-12T02:44:09.446Z,3.3538
2023-04-12T02:45:11.102Z,4.7538
2023-04-12T02:46:12.817Z,4.5077
2023-04-12T02:47:14.378Z,5.7231
2023-04-12T02:48:16.023Z,4.0000
2023-04-12T02:49:17.660Z,4.2462
2023-04-12T02:50:19.304Z,5.3615
2023-04-12T02:51:20.992Z,5.2385
2023-04-12T02:52:22.596Z,3.1154
2023-04-12T02:53:24.332Z,3.3846
2023-04-12T02:54:25.936Z,3.3923
2023-04-12T02:55:27.556Z,3.7846
2023-04-12T02:56:29.242Z,3.6308
2023-04-12T02:57:30.878Z,3.7769
2023-04-12T02:58:32.496Z,7.1692
2023-04-12T02:59:34.135Z,5.9308
2023-04-12T03:00:35.770Z,4.2692
2023-04-12T03:01:37.568Z,4.4462
2023-04-12T03:02:39.141Z,4.4000
2023-04-12T03:03:40.897Z,4.0692
2023-04-12T03:04:42.333Z,4.5923
2023-04-12T03:05:43.994Z,4.4077
2023-04-12T03:06:45.640Z,4.4923
2023-04-12T03:07:47.307Z,4.7538
2023-04-12T03:08:48.928Z,5.0154
2023-04-12T03:09:50.621Z,4.0846
2023-04-12T03:10:52.196Z,3.3077
2023-04-12T03:11:53.905Z,4.3769
2023-04-12T03:12:55.530Z,5.2308
2023-04-12T03:13:57.270Z,5.2077
2023-04-12T03:14:58.763Z,3.9154
2023-04-12T03:16:00.498Z,3.8615
2023-04-12T03:17:02.087Z,5.6462
2023-04-12T03:18:03.783Z,4.2538
2023-04-12T03:19:05.328Z,5.1385
2023-04-12T03:20:07.005Z,4.1846
2023-04-12T03:21:08.623Z,4.4462
2023-04-12T03:22:10.254Z,4.9462
2023-04-12T03:23:11.928Z,5.4692
2023-04-12T03:24:13.785Z,6.3308
2023-04-12T03:25:15.201Z,4.7077
2023-04-12T03:26:16.843Z,4.6846
2023-04-12T03:27:18.567Z,5.7154
2023-04-12T03:28:20.092Z,6.0385
2023-04-12T03:29:21.747Z,4.5154
2023-04-12T03:30:23.393Z,4.6769
2023-04-12T03:31:25.056Z,4.8769
2023-04-12T03:32:26.774Z,6.3769
2023-04-12T03:33:28.413Z,4.7077
2023-04-12T03:34:30.081Z,4.4692
2023-04-12T03:35:31.677Z,4.1615
2023-04-12T03:36:33.308Z,4.4615
2023-04-12T03:37:35.011Z,3.8769
2023-04-12T03:38:36.577Z,3.6231
2023-04-12T03:39:38.219Z,4.3615
2023-04-12T03:40:39.863Z,4.4769
2023-04-12T03:41:41.513Z,4.4769
2023-04-12T03:42:43.163Z,3.9615
2023-04-12T03:43:44.799Z,4.2538
2023-04-12T03:44:46.439Z,3.5615
2023-04-12T03:45:48.093Z,4.2846
2023-04-12T03:46:49.725Z,3.6462
2023-04-12T03:47:51.378Z,3.9692
2023-04-12T03:48:52.952Z,3.3769
2023-04-12T03:50:10.159Z,3.5154
2023-04-12T03:50:56.230Z,5.8462
2023-04-12T03:51:57.862Z,4.1385
2023-04-12T03:52:59.537Z,4.5308
2023-04-12T03:54:01.141Z,4.8154
2023-04-12T03:55:02.799Z,4.0154
2023-04-12T03:56:04.448Z,4.7231
2023-04-12T03:57:06.125Z,4.2692
2023-04-12T03:58:07.742Z,3.5692
2023-04-12T03:59:09.353Z,6.6692
2023-04-12T04:00:10.992Z,4.8308
2023-04-12T04:01:12.647Z,3.8769
2023-04-12T04:02:14.278Z,3.9385
2023-04-12T04:03:16.061Z,4.3077
2023-04-12T04:04:17.655Z,3.6385
2023-04-12T04:05:19.289Z,3.5769
2023-04-12T04:06:20.880Z,3.2615
2023-04-12T04:07:22.512Z,3.4923
2023-04-12T04:08:24.146Z,3.5923
2023-04-12T04:09:25.765Z,3.4308
2023-04-12T04:10:27.418Z,3.0462
2023-04-12T04:11:29.070Z,3.4846
2023-04-12T04:12:30.726Z,2.5846
2023-04-12T04:13:32.406Z,3.2308
2023-04-12T04:14:34.174Z,4.3462
2023-04-12T04:15:35.613Z,3.9231
2023-04-12T04:16:37.316Z,3.2077
2023-04-12T04:17:38.964Z,3.9308
2023-04-12T04:18:40.610Z,3.9538
2023-04-12T04:19:42.195Z,3.5846
2023-04-12T04:20:43.894Z,4.0538
2023-04-12T04:21:45.564Z,4.0769
2023-04-12T04:22:47.237Z,5.1846
2023-04-12T04:23:48.929Z,3.9385
2023-04-12T04:24:50.498Z,2.9538
2023-04-12T04:25:52.158Z,3.1769
2023-04-12T04:26:53.770Z,2.9231
2023-04-12T04:27:55.417Z,3.3308
2023-04-12T04:28:57.107Z,3.0231
2023-04-12T04:29:58.723Z,4.4769
2023-04-12T04:31:00.377Z,3.2692
2023-04-12T04:32:02.058Z,2.9231
2023-04-12T04:33:03.811Z,2.8846
2023-04-12T04:34:05.326Z,4.3231
2023-04-12T04:35:06.918Z,4.7000
2023-04-12T04:36:08.577Z,3.4692
2023-04-12T04:37:10.199Z,3.1000
2023-04-12T04:38:11.880Z,3.3308
2023-04-12T04:39:13.549Z,2.5538
2023-04-12T04:40:15.154Z,3.1692
2023-04-12T04:41:16.779Z,2.5077
2023-04-12T04:42:18.326Z,2.6769
2023-04-12T04:43:19.945Z,2.8385
2023-04-12T04:44:21.621Z,7.7154
2023-04-12T04:45:23.272Z,4.9692
2023-04-12T04:46:24.888Z,3.3385
2023-04-12T04:47:26.520Z,4.4846
2023-04-12T04:48:28.166Z,3.9154
2023-04-12T04:49:29.815Z,4.0000
2023-04-12T04:50:31.441Z,4.0692
2023-04-12T04:51:33.113Z,3.9462
2023-04-12T04:52:34.728Z,4.2385
2023-04-12T04:53:36.348Z,4.6462
2023-04-12T04:54:38.021Z,3.4846
2023-04-12T04:55:39.641Z,2.4615
2023-04-12T04:56:41.301Z,3.7692
2023-04-12T04:57:42.906Z,2.7308
2023-04-12T04:58:44.579Z,3.4846
2023-04-12T04:59:46.234Z,2.4231
2023-04-12T05:00:47.883Z,2.7077
2023-04-12T05:01:49.576Z,3.5308
2023-04-12T05:02:51.248Z,3.3308
2023-04-12T05:03:52.898Z,3.9923
2023-04-12T05:04:54.420Z,2.3000
2023-04-12T05:05:56.072Z,3.1385
2023-04-12T05:06:57.694Z,3.9077
2023-04-12T05:07:59.302Z,3.5154
2023-04-12T05:09:01.007Z,2.5077
2023-04-12T05:10:02.663Z,3.1462
2023-04-12T05:11:04.260Z,3.1692
2023-04-12T05:12:05.882Z,4.1923
2023-04-12T05:13:07.560Z,2.9923
2023-04-12T05:14:10.757Z,5.2615
2023-04-12T05:15:12.227Z,5.3385
2023-04-12T05:16:12.510Z,3.6308
2023-04-12T05:17:14.101Z,3.7538
2023-04-12T05:18:15.749Z,4.0462
2023-04-12T05:19:17.349Z,2.8231
2023-04-12T05:20:19.063Z,3.8846
2023-04-12T05:21:21.300Z,3.6846
2023-04-12T05:22:22.304Z,5.0615
2023-04-12T05:23:23.932Z,4.1462
2023-04-12T05:24:25.678Z,3.5846
2023-04-12T05:25:27.398Z,5.4692
2023-04-12T05:26:28.956Z,5.9692
2023-04-12T05:27:30.661Z,5.2769
2023-04-12T05:28:32.222Z,4.4846
2023-04-12T05:29:33.890Z,3.8538
2023-04-12T05:30:35.541Z,3.7154
2023-04-12T05:31:37.101Z,4.0231
2023-04-12T05:32:38.760Z,5.2000
2023-04-12T05:33:40.422Z,3.4462
2023-04-12T05:34:42.021Z,3.6154
2023-04-12T05:35:43.802Z,4.4692
2023-04-12T05:36:45.460Z,3.0769
2023-04-12T05:37:46.965Z,3.8846
2023-04-12T05:38:48.633Z,3.9000
2023-04-12T05:39:50.261Z,3.2385
2023-04-12T05:40:51.911Z,11.7462
2023-04-12T05:41:53.539Z,60.2923
2023-04-12T05:42:55.181Z,59.7615
2023-04-12T05:43:56.800Z,77.4923
2023-04-12T05:44:58.463Z,98.4154
2023-04-12T05:46:00.218Z,35.2923
2023-04-12T05:47:01.758Z,10.5846
2023-04-12T05:48:03.433Z,5.7769
2023-04-12T05:49:05.013Z,5.3077
2023-04-12T05:50:07.100Z,4.2462
2023-04-12T05:51:08.335Z,3.5615
2023-04-12T05:52:09.945Z,3.8308
2023-04-12T05:53:11.573Z,4.8769
2023-04-12T05:54:13.408Z,5.9692
2023-04-12T05:55:14.868Z,4.6462
2023-04-12T05:56:16.552Z,4.7077
2023-04-12T05:57:18.130Z,4.4077
2023-04-12T05:58:19.778Z,3.3692
2023-04-12T05:59:21.416Z,4.4000
2023-04-12T06:00:23.038Z,3.4538
2023-04-12T06:01:24.693Z,5.3692
2023-04-12T06:02:26.572Z,4.3615
2023-04-12T06:03:28.842Z,4.9000
2023-04-12T06:04:42.116Z,5.2385
2023-04-12T06:05:31.346Z,5.3846
2023-04-12T06:06:33.025Z,4.5462
2023-04-12T06:07:34.610Z,4.6692
2023-04-12T06:08:36.694Z,8.0769
2023-04-12T06:09:37.917Z,6.6077
2023-04-12T06:10:39.560Z,4.7231
2023-04-12T06:11:41.277Z,4.2462
2023-04-12T06:12:42.871Z,4.3308
2023-04-12T06:13:44.523Z,4.7077
2023-04-12T06:14:46.169Z,4.3615
2023-04-12T06:15:47.814Z,4.5462
2023-04-12T06:16:49.460Z,6.2462
2023-04-12T06:17:51.088Z,5.4231
2023-04-12T06:18:52.716Z,5.3385
2023-04-12T06:19:54.354Z,4.8462
2023-04-12T06:20:56.011Z,4.4846
2023-04-12T06:21:57.761Z,5.8385
2023-04-12T06:22:59.299Z,5.9385
2023-04-12T06:24:00.984Z,7.8538
2023-04-12T06:25:02.581Z,5.5231
2023-04-12T06:26:04.246Z,4.8846
2023-04-12T06:27:05.889Z,4.8769
2023-04-12T06:28:07.481Z,4.7846
2023-04-12T06:29:09.153Z,4.9846
2023-04-12T06:30:10.814Z,4.4538
2023-04-12T06:31:12.490Z,5.0923
2023-04-12T06:32:14.198Z,4.9231
2023-04-12T06:33:15.671Z,3.8692
2023-04-12T06:34:17.257Z,5.4000
2023-04-12T06:35:18.902Z,5.0077
2023-04-12T06:36:20.553Z,4.6000
2023-04-12T06:37:22.249Z,4.2462
2023-04-12T06:38:23.846Z,6.7692
2023-04-12T06:39:25.481Z,6.9077
2023-04-12T06:40:27.197Z,4.7769
2023-04-12T06:41:28.736Z,6.5769
2023-04-12T06:42:30.413Z,5.2846
2023-04-12T06:43:32.015Z,3.0923
2023-04-12T06:44:33.722Z,6.2615
2023-04-12T06:45:35.314Z,4.5231
2023-04-12T06:46:37.014Z,4.2769
2023-04-12T06:47:38.674Z,4.6846
2023-04-12T06:48:41.359Z,4.3769
2023-04-12T06:49:41.861Z,4.2231
2023-04-12T06:50:43.537Z,9.7538
2023-04-12T06:51:45.168Z,7.6615
2023-04-12T06:52:46.853Z,4.2308
2023-04-12T06:53:48.439Z,8.1385
2023-04-12T06:54:50.108Z,5.9923
2023-04-12T06:55:51.718Z,5.0154
2023-04-12T06:56:53.439Z,4.7385
2023-04-12T06:57:55.095Z,10.3308
2023-04-12T06:58:57.038Z,10.3308
2023-04-12T06:59:58.323Z,5.0615
2023-04-12T07:00:59.998Z,5.4154
2023-04-12T07:02:01.695Z,7.3000
2023-04-12T07:03:03.323Z,5.4385
2023-04-12T07:04:04.963Z,4.9923
2023-04-12T07:05:06.522Z,5.1154
2023-04-12T07:06:17.768Z,5.7154
2023-04-12T07:07:09.853Z,3.8077
2023-04-12T07:08:11.481Z,2.7154
2023-04-12T07:09:13.080Z,3.5615
2023-04-12T07:10:14.725Z,3.8154
2023-04-12T07:11:21.517Z,4.3923
2023-04-12T07:12:18.072Z,6.2769
2023-04-12T07:13:20.119Z,5.2769
2023-04-12T07:14:21.276Z,4.7308
2023-04-12T07:15:22.934Z,4.6154
2023-04-12T07:16:24.644Z,5.4308
2023-04-12T07:17:26.249Z,3.7923
2023-04-12T07:18:27.845Z,4.8385
2023-04-12T07:19:29.474Z,5.3000
2023-04-12T07:20:31.138Z,6.0769
2023-04-12T07:21:32.764Z,5.6231
2023-04-12T07:22:34.463Z,5.4000
2023-04-12T07:23:36.040Z,5.2538
2023-04-12T07:24:37.732Z,6.2308
2023-04-12T07:25:39.306Z,4.8923
2023-04-12T07:26:40.991Z,5.6231
2023-04-12T07:27:42.663Z,4.6000
2023-04-12T07:28:44.237Z,5.8615
2023-04-12T07:29:45.904Z,6.1846
2023-04-12T07:30:47.524Z,5.6615
2023-04-12T07:31:49.194Z,4.4154
2023-04-12T07:32:50.896Z,5.2308
2023-04-12T07:33:52.601Z,5.6923
2023-04-12T07:34:54.111Z,7.1538
2023-04-12T07:35:55.762Z,5.8308
2023-04-12T07:36:57.376Z,5.7231
2023-04-12T07:37:59.060Z,4.9615
2023-04-12T07:39:00.799Z,4.5923
2023-04-12T07:40:02.380Z,6.8000
2023-04-12T07:41:03.968Z,5.8000
2023-04-12T07:42:05.598Z,6.8846
2023-04-12T07:43:07.263Z,18.4538
2023-04-12T07:44:08.835Z,15.6231
2023-04-12T07:45:10.673Z,6.5538
2023-04-12T07:46:12.211Z,5.6769
2023-04-12T07:47:13.825Z,5.7846
2023-04-12T07:48:15.434Z,6.9692
2023-04-12T07:49:17.061Z,6.0154
2023-04-12T07:50:18.727Z,5.9231
2023-04-12T07:51:20.320Z,6.4538
2023-04-12T07:52:21.913Z,4.9000
2023-04-12T07:53:23.647Z,5.9154
2023-04-12T07:54:25.198Z,6.8692
2023-04-12T07:55:26.837Z,6.5000
2023-04-12T07:56:28.478Z,12.5231
2023-04-12T07:57:30.583Z,14.2462
2023-04-12T07:58:31.800Z,9.6077
2023-04-12T07:59:33.373Z,10.0538
2023-04-12T08:00:35.048Z,7.2615
2023-04-12T08:01:36.637Z,7.5231
2023-04-12T08:02:38.716Z,6.3769
2023-04-12T08:03:40.002Z,6.1154
2023-04-12T08:04:41.558Z,4.8923
2023-04-12T08:05:43.222Z,5.2923
2023-04-12T08:06:44.807Z,4.8769
2023-04-12T08:07:46.462Z,5.3154
2023-04-12T08:08:48.528Z,6.2154
2023-04-12T08:09:49.718Z,4.6615
2023-04-12T08:10:51.397Z,4.4231
2023-04-12T08:11:53.017Z,5.1846
2023-04-12T08:12:54.848Z,4.1308
2023-04-12T08:13:56.451Z,5.2385
2023-04-12T08:14:57.935Z,4.4231
2023-04-12T08:15:59.630Z,4.1615
2023-04-12T08:17:01.157Z,7.4923
2023-04-12T08:18:02.841Z,6.6846
2023-04-12T08:19:04.471Z,6.5538
2023-04-12T08:20:06.156Z,6.7846
2023-04-12T08:21:07.726Z,13.4615
2023-04-12T08:22:10.105Z,8.2923
2023-04-12T08:23:11.020Z,7.4077
2023-04-12T08:24:12.637Z,6.5308
2023-04-12T08:25:14.354Z,5.5615
2023-04-12T08:26:15.935Z,9.6000
2023-04-12T08:27:17.554Z,5.3923
2023-04-12T08:28:19.202Z,5.1462
2023-04-12T08:29:20.824Z,3.9231
2023-04-12T08:30:22.527Z,4.9000
2023-04-12T08:31:24.176Z,6.2000
2023-04-12T08:32:25.825Z,3.6923
2023-04-12T08:33:27.524Z,4.5769
2023-04-12T08:34:29.058Z,4.7000
2023-04-12T08:35:30.778Z,4.1154
2023-04-12T08:36:32.295Z,4.9154
2023-04-12T08:37:33.958Z,3.5462
2023-04-12T08:38:45.042Z,4.2385
2023-04-12T08:39:37.234Z,4.4769
2023-04-12T08:40:38.923Z,4.5615
2023-04-12T08:41:40.506Z,5.6231
2023-04-12T08:42:42.115Z,4.1077
2023-04-12T08:43:43.744Z,5.2154
2023-04-12T08:44:45.396Z,4.6615
2023-04-12T08:45:47.107Z,6.0154
2023-04-12T08:46:48.734Z,5.1769
2023-04-12T08:47:50.327Z,5.4000
2023-04-12T08:48:51.945Z,6.0462
2023-04-12T08:49:53.672Z,5.6846
2023-04-12T08:50:55.225Z,4.5231
2023-04-12T08:51:56.873Z,4.0692
2023-04-12T08:52:58.533Z,5.3692
2023-04-12T08:54:00.372Z,4.9692
2023-04-12T08:55:01.795Z,4.5308
2023-04-12T08:56:03.464Z,4.7923
2023-04-12T08:57:05.058Z,5.1077
2023-04-12T08:58:06.731Z,5.1077
2023-04-12T08:59:08.400Z,5.1000
2023-04-12T09:00:10.072Z,5.7154
2023-04-12T09:01:11.641Z,7.0846
2023-04-12T09:02:13.398Z,6.0231
2023-04-12T09:03:15.124Z,6.8308
2023-04-12T09:04:16.904Z,5.6000
2023-04-12T09:05:18.357Z,8.4769
2023-04-12T09:06:19.862Z,5.9846
2023-04-12T09:07:21.463Z,5.6692
2023-04-12T09:08:23.105Z,4.9462
2023-04-12T09:09:24.740Z,5.7462
2023-04-12T09:10:26.441Z,7.3923
2023-04-12T09:11:28.171Z,7.1231
2023-04-12T09:12:29.673Z,5.7692
2023-04-12T09:13:31.305Z,6.1538
2023-04-12T09:14:32.954Z,6.1769
2023-04-12T09:15:34.742Z,5.4231
2023-04-12T09:16:36.315Z,5.5231
2023-04-12T09:17:37.900Z,5.1077
2023-04-12T09:18:39.497Z,5.0692
2023-04-12T09:19:41.157Z,6.4462
2023-04-12T09:20:42.825Z,6.2769
2023-04-12T09:21:44.398Z,5.6385
2023-04-12T09:22:46.165Z,7.3769
2023-04-12T09:23:47.702Z,17.8769
2023-04-12T09:24:49.344Z,33.3462
2023-04-12T09:25:51.012Z,51.7462
2023-04-12T09:26:52.619Z,22.0385
2023-04-12T09:27:54.304Z,18.2846
2023-04-12T09:28:55.921Z,11.3538
2023-04-12T09:29:59.992Z,12.3615
2023-04-12T09:30:59.289Z,14.6462
2023-04-12T09:32:00.914Z,56.0846
2023-04-12T09:33:02.484Z,114.9462
2023-04-12T09:34:04.103Z,39.0462
2023-04-12T09:35:05.818Z,15.0231
2023-04-12T09:36:07.404Z,605.2077
2023-04-12T09:37:09.015Z,252.6385
2023-04-12T09:38:10.656Z,324.7231
2023-04-12T09:39:12.259Z,193.4000
2023-04-12T09:40:13.898Z,63.8923
2023-04-12T09:41:16.582Z,89.5769
2023-04-12T09:42:32.412Z,182.6538
2023-04-12T09:43:18.865Z,53.5462
2023-04-12T09:44:20.467Z,191.8923
2023-04-12T09:45:22.171Z,142.0000
2023-04-12T09:46:23.790Z,13.3308
2023-04-12T09:47:25.364Z,6.7000
2023-04-12T09:48:26.986Z,4.5077
2023-04-12T09:49:28.636Z,28.8692
2023-04-12T09:50:30.321Z,132.1615
2023-04-12T09:51:32.037Z,75.5769
2023-04-12T09:52:33.639Z,12.2385
2023-04-12T09:53:35.256Z,115.9538
2023-04-12T09:54:36.873Z,71.1538
2023-04-12T09:55:38.587Z,84.6846
2023-04-12T09:56:40.190Z,28.9154
2023-04-12T09:57:41.771Z,26.0308
2023-04-12T09:58:43.416Z,67.1462
2023-04-12T09:59:45.033Z,130.3846
2023-04-12T10:00:46.685Z,77.6538
2023-04-12T10:01:48.438Z,83.9615
2023-04-12T10:02:51.484Z,100.2077
2023-04-12T10:03:51.808Z,154.7077
2023-04-12T10:04:53.273Z,87.0077
2023-04-12T10:05:54.865Z,29.2923
2023-04-12T10:06:56.557Z,24.3308
2023-04-12T10:07:58.136Z,119.8385
2023-04-12T10:08:59.787Z,124.3308
2023-04-12T10:10:01.402Z,53.2846
2023-04-12T10:11:02.988Z,43.2846
2023-04-12T10:12:04.706Z,54.7692
2023-04-12T10:13:06.272Z,56.5385
2023-04-12T10:14:07.908Z,164.9846
2023-04-12T10:15:09.549Z,17.9615
2023-04-12T10:16:11.248Z,7.5538
2023-04-12T10:17:12.859Z,6.3385
2023-04-12T10:18:14.481Z,3.8154
2023-04-12T10:19:16.088Z,4.9769
2023-04-12T10:20:17.826Z,6.1231
2023-04-12T10:21:19.349Z,4.9077
2023-04-12T10:22:21.018Z,3.9154
2023-04-12T10:23:22.641Z,4.4769
2023-04-12T10:24:24.266Z,4.1154
2023-04-12T10:25:26.051Z,5.1385
2023-04-12T10:26:27.536Z,4.0615
2023-04-12T10:27:29.196Z,4.3385
2023-04-12T10:28:30.802Z,4.4692
2023-04-12T10:29:32.504Z,4.0000
2023-04-12T10:30:34.051Z,4.5154
2023-04-12T10:31:35.764Z,3.3154
2023-04-12T10:32:37.460Z,3.4000
2023-04-12T10:33:39.000Z,6.2077
2023-04-12T10:34:40.747Z,3.4692
2023-04-12T10:35:42.341Z,5.3231
2023-04-12T10:36:43.905Z,4.0000
2023-04-12T10:37:45.542Z,3.8615
2023-04-12T10:38:47.167Z,4.8000
2023-04-12T10:39:48.848Z,4.5769
2023-04-12T10:40:50.453Z,4.2769
2023-04-12T10:41:51.938Z,5.5000
2023-04-12T10:42:53.621Z,4.7769
2023-04-12T10:43:55.249Z,5.7231
2023-04-12T10:44:58.690Z,4.5462
2023-04-12T10:45:58.534Z,5.3385
2023-04-12T10:47:00.267Z,7.1077
2023-04-12T10:48:01.995Z,5.2231
2023-04-12T10:49:03.484Z,4.9769
2023-04-12T10:50:05.113Z,4.9000
2023-04-12T10:51:06.814Z,5.4308
2023-04-12T10:52:08.490Z,4.4846
2023-04-12T10:53:10.039Z,4.2385
2023-04-12T10:54:11.656Z,4.9769
2023-04-12T10:55:13.258Z,4.2077
2023-04-12T10:56:14.913Z,4.0769
2023-04-12T10:57:16.540Z,4.7000
2023-04-12T10:58:18.201Z,4.7538
2023-04-12T10:59:19.874Z,4.1385
2023-04-12T11:00:21.524Z,4.2385
2023-04-12T11:01:23.276Z,4.0538
2023-04-12T11:02:24.878Z,5.6308
2023-04-12T11:03:26.524Z,5.9000
2023-04-12T11:04:28.153Z,5.6000
2023-04-12T11:05:29.762Z,4.3692
2023-04-12T11:06:31.292Z,4.8615
2023-04-12T11:07:32.950Z,5.2077
2023-04-12T11:08:34.621Z,6.1462
2023-04-12T11:09:36.529Z,6.3308
2023-04-12T11:10:37.843Z,5.4846
2023-04-12T11:11:39.493Z,6.0769
2023-04-12T11:12:41.132Z,5.3385
2023-04-12T11:13:42.769Z,6.2692
2023-04-12T11:14:44.376Z,6.9231
2023-04-12T11:15:46.053Z,7.0385
2023-04-12T11:16:47.749Z,6.7769
2023-04-12T11:17:49.490Z,5.8154
2023-04-12T11:18:51.086Z,4.9462
2023-04-12T11:19:52.642Z,3.9000
2023-04-12T11:20:54.290Z,6.2000
2023-04-12T11:21:55.900Z,4.8923
2023-04-12T11:22:57.611Z,5.5154
2023-04-12T11:23:59.216Z,4.2000
2023-04-12T11:25:00.816Z,4.1385
2023-04-12T11:26:02.515Z,5.3615
2023-04-12T11:27:04.093Z,3.8846
2023-04-12T11:28:17.200Z,4.3769
2023-04-12T11:29:07.410Z,3.9615
2023-04-12T11:30:09.013Z,4.5615
2023-04-12T11:31:10.701Z,6.5231
2023-04-12T11:32:12.336Z,6.0615
2023-04-12T11:33:13.940Z,3.8769
2023-04-12T11:34:16.188Z,3.9462
2023-04-12T11:35:17.176Z,4.5692
2023-04-12T11:36:18.869Z,3.9615
2023-04-12T11:37:20.457Z,77.2462
2023-04-12T11:38:22.136Z,285.1769
2023-04-12T11:39:23.770Z,163.3462
2023-04-12T11:40:25.356Z,155.2462
2023-04-12T11:41:26.994Z,177.4385
2023-04-12T11:42:28.608Z,212.0077
2023-04-12T11:43:30.278Z,228.8231
2023-04-12T11:44:40.788Z,171.3385
2023-04-12T11:45:33.515Z,76.6077
2023-04-12T11:46:35.078Z,85.5692
2023-04-12T11:47:36.758Z,227.7308
2023-04-12T11:48:38.331Z,71.1462
2023-04-12T11:49:40.016Z,110.5462
2023-04-12T11:50:41.636Z,278.1461
2023-04-12T11:51:43.260Z,130.6539
2023-04-12T11:52:44.942Z,87.3462
2023-04-12T11:53:46.743Z,222.9231
2023-04-12T11:54:48.218Z,40.5154
2023-04-12T11:55:49.816Z,53.4000
2023-04-12T11:56:51.444Z,94.9462
2023-04-12T11:57:53.067Z,51.5923
2023-04-12T11:58:54.723Z,100.5000
2023-04-12T11:59:56.388Z,86.1077
2023-04-12T12:00:58.130Z,101.9308
2023-04-12T12:01:59.666Z,155.5692
2023-04-12T12:03:07.762Z,145.1923
2023-04-12T12:04:03.384Z,52.3538
2023-04-12T12:05:04.906Z,70.8538
2023-04-12T12:06:06.360Z,64.6462
2023-04-12T12:07:08.017Z,128.5846
2023-04-12T12:08:09.759Z,189.0231
2023-04-12T12:09:11.105Z,155.9692
2023-04-12T12:10:18.423Z,87.8846
2023-04-12T12:11:14.346Z,60.8846
2023-04-12T12:12:15.980Z,38.0154
2023-04-12T12:13:17.637Z,29.9308
2023-04-12T12:14:19.276Z,192.8000
2023-04-12T12:15:20.982Z,401.5692
2023-04-12T12:16:22.503Z,153.0077
2023-04-12T12:17:24.207Z,65.0846
2023-04-12T12:18:25.808Z,70.8692
2023-04-12T12:19:27.396Z,88.9538
2023-04-12T12:20:29.150Z,116.5538
2023-04-12T12:21:30.755Z,107.0692
2023-04-12T12:22:32.394Z,81.0154
2023-04-12T12:23:34.116Z,202.7231
2023-04-12T12:24:37.561Z,255.5154
2023-04-12T12:25:37.332Z,226.1385
2023-04-12T12:26:38.815Z,168.1385
2023-04-12T12:27:40.633Z,239.6539
2023-04-12T12:28:42.078Z,122.6923
2023-04-12T12:29:43.718Z,104.5462
2023-04-12T12:30:45.341Z,122.5923
2023-04-12T12:31:46.993Z,38.7692
2023-04-12T12:32:48.861Z,58.5769
2023-04-12T12:33:50.240Z,71.3923
2023-04-12T12:34:51.878Z,125.1308
2023-04-12T12:35:53.493Z,30.5615
2023-04-12T12:36:55.109Z,23.0538
2023-04-12T12:37:56.726Z,100.0231
2023-04-12T12:38:58.922Z,77.8154
2023-04-12T12:40:00.313Z,66.8462
2023-04-12T12:41:01.699Z,24.3846
2023-04-12T12:42:03.278Z,54.5077
2023-04-12T12:43:05.278Z,118.2462